sensor_id;sensor_type;location;lat;lon;timestamp;pressure;altitude;pressure_sealevel;temperature;humidity
26376;BME280;30544;42.196;24.336;2022-07-30T00:02:15;99069.63;;;24.36;51.84
26376;BME280;30544;42.196;24.336;2022-07-30T00:04:43;99060.66;;;24.25;52.73
26376;BME280;30544;42.196;24.336;2022-07-30T00:07:11;99059.78;;;24.33;52.24
26376;BME280;30544;42.196;24.336;2022-07-30T00:09:38;99060.50;;;24.30;52.46
26376;BME280;30544;42.196;24.336;2022-07-30T00:12:06;99058.13;;;24.32;52.03
26376;BME280;30544;42.196;24.336;2022-07-30T00:14:33;99059.13;;;24.36;51.94
26376;BME280;30544;42.196;24.336;2022-07-30T00:17:00;99053.13;;;24.38;52.28
26376;BME280;30544;42.196;24.336;2022-07-30T00:19:27;99059.34;;;24.22;52.68
26376;BME280;30544;42.196;24.336;2022-07-30T00:21:55;99048.25;;;24.09;52.82
26376;BME280;30544;42.196;24.336;2022-07-30T00:24:22;99053.09;;;24.08;53.04
26376;BME280;30544;42.196;24.336;2022-07-30T00:26:49;99044.13;;;23.97;53.18
26376;BME280;30544;42.196;24.336;2022-07-30T00:29:16;99042.81;;;23.95;53.91
26376;BME280;30544;42.196;24.336;2022-07-30T00:31:44;99045.31;;;23.96;53.72
26376;BME280;30544;42.196;24.336;2022-07-30T00:34:11;99047.78;;;23.98;53.96
26376;BME280;30544;42.196;24.336;2022-07-30T00:36:38;99040.59;;;24.09;53.46
26376;BME280;30544;42.196;24.336;2022-07-30T00:39:06;99047.06;;;24.10;53.54
26376;BME280;30544;42.196;24.336;2022-07-30T00:41:33;99034.94;;;24.00;54.09
26376;BME280;30544;42.196;24.336;2022-07-30T00:44:02;99042.91;;;23.78;54.62
26376;BME280;30544;42.196;24.336;2022-07-30T00:46:29;99042.06;;;23.77;54.66
26376;BME280;30544;42.196;24.336;2022-07-30T00:48:56;99047.25;;;23.66;54.63
26376;BME280;30544;42.196;24.336;2022-07-30T00:51:23;99042.59;;;23.70;54.97
26376;BME280;30544;42.196;24.336;2022-07-30T00:53:49;99035.31;;;23.52;54.99
26376;BME280;30544;42.196;24.336;2022-07-30T00:56:18;99034.63;;;23.55;55.50
26376;BME280;30544;42.196;24.336;2022-07-30T00:58:44;99032.13;;;23.54;55.40
26376;BME280;30544;42.196;24.336;2022-07-30T01:01:11;99023.47;;;23.50;55.30
26376;BME280;30544;42.196;24.336;2022-07-30T01:03:38;99026.19;;;23.38;55.53
26376;BME280;30544;42.196;24.336;2022-07-30T01:06:05;99022.88;;;23.27;56.23
26376;BME280;30544;42.196;24.336;2022-07-30T01:08:31;99026.34;;;23.33;55.92
26376;BME280;30544;42.196;24.336;2022-07-30T01:10:58;99027.97;;;23.51;55.42
26376;BME280;30544;42.196;24.336;2022-07-30T01:13:27;99031.66;;;23.43;55.29
26376;BME280;30544;42.196;24.336;2022-07-30T01:15:54;99028.00;;;23.42;55.82
26376;BME280;30544;42.196;24.336;2022-07-30T01:18:23;99025.03;;;23.39;55.61
26376;BME280;30544;42.196;24.336;2022-07-30T01:21:14;99022.06;;;23.27;56.31
26376;BME280;30544;42.196;24.336;2022-07-30T01:23:44;99026.00;;;23.52;55.33
26376;BME280;30544;42.196;24.336;2022-07-30T01:26:17;99020.50;;;23.47;55.32
26376;BME280;30544;42.196;24.336;2022-07-30T01:28:49;99015.56;;;23.26;55.84
26376;BME280;30544;42.196;24.336;2022-07-30T01:31:17;99024.53;;;23.37;55.90
26376;BME280;30544;42.196;24.336;2022-07-30T01:33:47;99024.44;;;23.07;56.28
26376;BME280;30544;42.196;24.336;2022-07-30T01:36:18;99037.06;;;23.10;56.67
26376;BME280;30544;42.196;24.336;2022-07-30T01:38:47;99031.38;;;23.36;55.72
26376;BME280;30544;42.196;24.336;2022-07-30T01:41:17;99038.50;;;23.33;56.28
26376;BME280;30544;42.196;24.336;2022-07-30T01:43:45;99030.97;;;23.46;55.60
26376;BME280;30544;42.196;24.336;2022-07-30T01:46:13;99031.66;;;23.43;55.71
26376;BME280;30544;42.196;24.336;2022-07-30T01:48:42;99032.34;;;23.31;56.11
26376;BME280;30544;42.196;24.336;2022-07-30T01:51:12;99026.69;;;23.40;55.73
26376;BME280;30544;42.196;24.336;2022-07-30T01:53:39;99026.88;;;23.26;56.70
26376;BME280;30544;42.196;24.336;2022-07-30T01:56:10;99019.91;;;23.24;57.13
26376;BME280;30544;42.196;24.336;2022-07-30T01:58:40;99010.47;;;23.02;56.90
26376;BME280;30544;42.196;24.336;2022-07-30T02:01:08;99006.31;;;22.83;57.51
26376;BME280;30544;42.196;24.336;2022-07-30T02:03:35;99010.31;;;22.90;57.38
26376;BME280;30544;42.196;24.336;2022-07-30T02:06:04;99014.78;;;22.91;57.79
26376;BME280;30544;42.196;24.336;2022-07-30T02:08:37;99021.25;;;22.74;57.83
26376;BME280;30544;42.196;24.336;2022-07-30T02:11:07;99014.28;;;22.72;58.17
26376;BME280;30544;42.196;24.336;2022-07-30T02:13:43;99013.94;;;22.73;58.13
26376;BME280;30544;42.196;24.336;2022-07-30T02:16:14;99010.94;;;22.78;58.13
26376;BME280;30544;42.196;24.336;2022-07-30T02:18:47;99019.59;;;22.73;58.09
26376;BME280;30544;42.196;24.336;2022-07-30T02:21:22;99021.09;;;22.54;59.05
26376;BME280;30544;42.196;24.336;2022-07-30T02:23:50;99028.53;;;22.32;59.13
26376;BME280;30544;42.196;24.336;2022-07-30T02:26:22;99033.03;;;22.50;58.63
26376;BME280;30544;42.196;24.336;2022-07-30T02:28:53;99034.88;;;22.55;58.54
26376;BME280;30544;42.196;24.336;2022-07-30T02:31:24;99028.69;;;22.18;59.88
26376;BME280;30544;42.196;24.336;2022-07-30T02:33:55;99034.81;;;22.12;59.44
26376;BME280;30544;42.196;24.336;2022-07-30T02:36:24;99024.97;;;22.01;59.91
26376;BME280;30544;42.196;24.336;2022-07-30T02:38:52;99026.91;;;21.91;60.55
26376;BME280;30544;42.196;24.336;2022-07-30T02:41:21;99031.69;;;21.82;60.53
26376;BME280;30544;42.196;24.336;2022-07-30T02:43:51;99017.38;;;21.70;61.12
26376;BME280;30544;42.196;24.336;2022-07-30T02:46:20;99021.03;;;21.71;61.51
26376;BME280;30544;42.196;24.336;2022-07-30T02:48:49;99013.69;;;21.61;61.31
26376;BME280;30544;42.196;24.336;2022-07-30T02:51:18;98998.19;;;21.89;60.94
26376;BME280;30544;42.196;24.336;2022-07-30T02:53:47;99007.81;;;21.88;61.21
26376;BME280;30544;42.196;24.336;2022-07-30T02:56:18;99014.34;;;21.67;61.53
26376;BME280;30544;42.196;24.336;2022-07-30T02:58:47;99006.16;;;21.48;62.17
26376;BME280;30544;42.196;24.336;2022-07-30T03:01:18;99008.78;;;21.44;62.30
26376;BME280;30544;42.196;24.336;2022-07-30T03:03:47;99006.09;;;21.70;61.85
26376;BME280;30544;42.196;24.336;2022-07-30T03:06:16;99002.44;;;21.70;61.63
26376;BME280;30544;42.196;24.336;2022-07-30T03:08:45;99007.34;;;21.55;61.65
26376;BME280;30544;42.196;24.336;2022-07-30T03:11:13;99008.75;;;21.75;61.18
26376;BME280;30544;42.196;24.336;2022-07-30T03:13:43;99009.03;;;21.65;61.95
26376;BME280;30544;42.196;24.336;2022-07-30T03:16:11;99004.38;;;21.52;62.33
26376;BME280;30544;42.196;24.336;2022-07-30T03:18:41;98995.28;;;21.32;62.83
26376;BME280;30544;42.196;24.336;2022-07-30T03:21:09;99009.09;;;21.34;63.18
26376;BME280;30544;42.196;24.336;2022-07-30T03:23:38;99014.91;;;21.15;64.24
26376;BME280;30544;42.196;24.336;2022-07-30T03:26:07;99022.00;;;21.13;64.24
26376;BME280;30544;42.196;24.336;2022-07-30T03:28:37;99027.66;;;21.13;64.29
26376;BME280;30544;42.196;24.336;2022-07-30T03:31:05;99029.31;;;21.14;64.40
26376;BME280;30544;42.196;24.336;2022-07-30T03:33:35;99025.75;;;21.22;64.05
26376;BME280;30544;42.196;24.336;2022-07-30T03:36:04;99028.78;;;21.03;64.87
26376;BME280;30544;42.196;24.336;2022-07-30T03:38:31;99030.28;;;21.09;65.46
26376;BME280;30544;42.196;24.336;2022-07-30T03:40:59;99026.31;;;21.32;64.56
26376;BME280;30544;42.196;24.336;2022-07-30T03:43:27;99034.50;;;20.98;64.77
26376;BME280;30544;42.196;24.336;2022-07-30T03:45:54;99023.75;;;21.22;64.06
26376;BME280;30544;42.196;24.336;2022-07-30T03:48:24;99023.22;;;21.82;62.58
26376;BME280;30544;42.196;24.336;2022-07-30T03:50:52;99013.97;;;22.82;58.87
26376;BME280;30544;42.196;24.336;2022-07-30T03:53:21;99022.91;;;24.12;55.36
26376;BME280;30544;42.196;24.336;2022-07-30T03:55:50;99025.31;;;24.52;54.26
26376;BME280;30544;42.196;24.336;2022-07-30T03:58:17;99023.53;;;25.10;52.29
26376;BME280;30544;42.196;24.336;2022-07-30T04:00:47;99026.00;;;25.44;51.44
26376;BME280;30544;42.196;24.336;2022-07-30T04:03:22;99023.25;;;25.24;51.74
26376;BME280;30544;42.196;24.336;2022-07-30T04:05:49;99034.47;;;25.20;52.09
26376;BME280;30544;42.196;24.336;2022-07-30T04:08:16;99035.25;;;25.41;51.60
26376;BME280;30544;42.196;24.336;2022-07-30T04:10:44;99020.53;;;25.85;50.01
26376;BME280;30544;42.196;24.336;2022-07-30T04:13:11;99037.25;;;25.98;49.47
26376;BME280;30544;42.196;24.336;2022-07-30T04:15:44;99043.47;;;25.34;51.19
26376;BME280;30544;42.196;24.336;2022-07-30T04:18:12;99048.19;;;25.30;52.16
26376;BME280;30544;42.196;24.336;2022-07-30T04:20:43;99039.22;;;24.45;54.24
26376;BME280;30544;42.196;24.336;2022-07-30T04:23:12;99048.69;;;24.19;54.78
26376;BME280;30544;42.196;24.336;2022-07-30T04:25:41;99058.84;;;23.91;55.58
26376;BME280;30544;42.196;24.336;2022-07-30T04:28:10;99060.63;;;24.04;56.45
26376;BME280;30544;42.196;24.336;2022-07-30T04:30:39;99040.59;;;24.09;56.22
26376;BME280;30544;42.196;24.336;2022-07-30T04:33:07;99046.97;;;24.27;55.46
26376;BME280;30544;42.196;24.336;2022-07-30T04:35:34;99041.88;;;24.20;55.11
26376;BME280;30544;42.196;24.336;2022-07-30T04:38:02;99044.97;;;24.27;54.91
26376;BME280;30544;42.196;24.336;2022-07-30T04:40:29;99052.88;;;24.72;53.71
26376;BME280;30544;42.196;24.336;2022-07-30T04:42:56;99045.94;;;24.61;54.38
26376;BME280;30544;42.196;24.336;2022-07-30T04:45:25;99047.81;;;24.57;54.58
26376;BME280;30544;42.196;24.336;2022-07-30T04:47:52;99052.56;;;24.65;54.29
26376;BME280;30544;42.196;24.336;2022-07-30T04:50:21;99035.63;;;24.36;54.86
26376;BME280;30544;42.196;24.336;2022-07-30T04:52:51;99036.19;;;24.92;54.53
26376;BME280;30544;42.196;24.336;2022-07-30T04:55:19;99038.00;;;24.75;54.62
26376;BME280;30544;42.196;24.336;2022-07-30T04:57:49;99026.97;;;25.03;53.95
26376;BME280;30544;42.196;24.336;2022-07-30T05:00:17;99035.50;;;24.95;53.68
26376;BME280;30544;42.196;24.336;2022-07-30T05:02:45;99031.44;;;25.37;52.96
26376;BME280;30544;42.196;24.336;2022-07-30T05:05:14;99031.25;;;25.55;52.81
26376;BME280;30544;42.196;24.336;2022-07-30T05:07:43;99031.47;;;25.49;53.01
26376;BME280;30544;42.196;24.336;2022-07-30T05:10:10;99030.94;;;25.02;53.54
26376;BME280;30544;42.196;24.336;2022-07-30T05:12:37;99017.19;;;25.58;52.65
26376;BME280;30544;42.196;24.336;2022-07-30T05:15:05;99032.19;;;25.59;52.60
26376;BME280;30544;42.196;24.336;2022-07-30T05:17:32;99024.00;;;26.15;51.43
26376;BME280;30544;42.196;24.336;2022-07-30T05:20:01;99019.28;;;26.06;50.91
26376;BME280;30544;42.196;24.336;2022-07-30T05:22:30;99028.47;;;26.52;50.46
26376;BME280;30544;42.196;24.336;2022-07-30T05:24:57;99036.56;;;26.90;49.44
26376;BME280;30544;42.196;24.336;2022-07-30T05:27:24;99037.81;;;26.65;50.02
26376;BME280;30544;42.196;24.336;2022-07-30T05:29:51;99039.63;;;26.57;50.07
26376;BME280;30544;42.196;24.336;2022-07-30T05:32:18;99023.63;;;26.93;49.44
26376;BME280;30544;42.196;24.336;2022-07-30T05:34:45;99034.50;;;27.03;49.42
26376;BME280;30544;42.196;24.336;2022-07-30T05:37:13;99045.06;;;26.50;49.44
26376;BME280;30544;42.196;24.336;2022-07-30T05:39:40;99044.56;;;26.73;49.63
26376;BME280;30544;42.196;24.336;2022-07-30T05:42:07;99027.03;;;27.39;48.89
26376;BME280;30544;42.196;24.336;2022-07-30T05:44:33;99027.31;;;26.04;49.73
26376;BME280;30544;42.196;24.336;2022-07-30T05:47:00;99036.94;;;25.67;51.48
26376;BME280;30544;42.196;24.336;2022-07-30T05:49:27;99029.34;;;26.04;50.68
26376;BME280;30544;42.196;24.336;2022-07-30T05:51:54;99022.44;;;26.29;49.47
26376;BME280;30544;42.196;24.336;2022-07-30T05:54:22;99034.38;;;26.99;48.53
26376;BME280;30544;42.196;24.336;2022-07-30T05:56:49;99031.03;;;27.66;47.26
26376;BME280;30544;42.196;24.336;2022-07-30T05:59:15;99019.19;;;27.64;46.26
26376;BME280;30544;42.196;24.336;2022-07-30T06:01:42;99027.41;;;27.53;46.77
26376;BME280;30544;42.196;24.336;2022-07-30T06:04:09;99025.59;;;27.61;46.80
26376;BME280;30544;42.196;24.336;2022-07-30T06:06:36;99023.78;;;28.31;45.33
26376;BME280;30544;42.196;24.336;2022-07-30T06:09:03;99034.25;;;28.43;44.14
26376;BME280;30544;42.196;24.336;2022-07-30T06:11:31;99037.72;;;28.21;43.81
26376;BME280;30544;42.196;24.336;2022-07-30T06:13:58;99037.28;;;28.18;43.85
26376;BME280;30544;42.196;24.336;2022-07-30T06:16:25;99037.28;;;28.03;44.56
26376;BME280;30544;42.196;24.336;2022-07-30T06:18:52;99036.75;;;27.81;44.26
26376;BME280;30544;42.196;24.336;2022-07-30T06:21:19;99039.25;;;27.39;45.63
26376;BME280;30544;42.196;24.336;2022-07-30T06:23:45;99032.97;;;27.34;46.61
26376;BME280;30544;42.196;24.336;2022-07-30T06:26:12;99035.75;;;27.46;45.44
26376;BME280;30544;42.196;24.336;2022-07-30T06:28:40;99033.66;;;27.58;45.42
26376;BME280;30544;42.196;24.336;2022-07-30T06:31:07;99034.63;;;27.94;44.00
26376;BME280;30544;42.196;24.336;2022-07-30T06:33:34;99020.47;;;28.13;44.15
26376;BME280;30544;42.196;24.336;2022-07-30T06:36:01;99013.88;;;28.60;42.98
26376;BME280;30544;42.196;24.336;2022-07-30T06:38:28;99017.16;;;29.17;42.13
26376;BME280;30544;42.196;24.336;2022-07-30T06:40:55;99008.50;;;29.32;42.00
26376;BME280;30544;42.196;24.336;2022-07-30T06:43:22;99012.53;;;28.38;43.39
26376;BME280;30544;42.196;24.336;2022-07-30T06:45:51;99004.81;;;28.74;41.57
26376;BME280;30544;42.196;24.336;2022-07-30T06:48:17;99012.50;;;29.70;40.66
26376;BME280;30544;42.196;24.336;2022-07-30T06:50:45;99022.41;;;29.15;40.49
26376;BME280;30544;42.196;24.336;2022-07-30T06:53:11;99004.38;;;29.30;41.06
26376;BME280;30544;42.196;24.336;2022-07-30T06:55:38;99004.88;;;28.77;42.68
26376;BME280;30544;42.196;24.336;2022-07-30T06:58:05;99004.94;;;28.97;42.75
26376;BME280;30544;42.196;24.336;2022-07-30T07:00:32;98994.81;;;29.42;41.78
26376;BME280;30544;42.196;24.336;2022-07-30T07:03:00;98995.63;;;29.61;41.36
26376;BME280;30544;42.196;24.336;2022-07-30T07:05:27;98995.38;;;30.42;40.10
26376;BME280;30544;42.196;24.336;2022-07-30T07:07:54;98998.22;;;29.70;41.27
26376;BME280;30544;42.196;24.336;2022-07-30T07:10:21;98998.06;;;30.32;41.03
26376;BME280;30544;42.196;24.336;2022-07-30T07:12:48;98996.84;;;30.33;39.19
26376;BME280;30544;42.196;24.336;2022-07-30T07:15:15;98994.06;;;30.36;39.11
26376;BME280;30544;42.196;24.336;2022-07-30T07:17:45;98995.47;;;30.49;39.48
26376;BME280;30544;42.196;24.336;2022-07-30T07:20:13;99003.34;;;30.30;39.12
26376;BME280;30544;42.196;24.336;2022-07-30T07:22:39;99006.53;;;30.02;39.45
26376;BME280;30544;42.196;24.336;2022-07-30T07:25:07;98999.69;;;30.06;40.11
26376;BME280;30544;42.196;24.336;2022-07-30T07:27:35;99004.88;;;30.50;39.32
26376;BME280;30544;42.196;24.336;2022-07-30T07:30:05;98991.16;;;31.19;37.92
26376;BME280;30544;42.196;24.336;2022-07-30T07:32:32;98990.31;;;30.89;37.88
26376;BME280;30544;42.196;24.336;2022-07-30T07:34:58;98991.75;;;31.35;37.38
26376;BME280;30544;42.196;24.336;2022-07-30T07:37:26;98996.19;;;30.99;38.15
26376;BME280;30544;42.196;24.336;2022-07-30T07:39:53;98991.69;;;31.28;37.39
26376;BME280;30544;42.196;24.336;2022-07-30T07:42:20;98989.25;;;31.71;37.16
26376;BME280;30544;42.196;24.336;2022-07-30T07:44:47;98984.09;;;31.13;38.12
26376;BME280;30544;42.196;24.336;2022-07-30T07:47:14;98983.81;;;30.35;39.02
26376;BME280;30544;42.196;24.336;2022-07-30T07:49:41;98981.63;;;31.11;38.73
26376;BME280;30544;42.196;24.336;2022-07-30T07:52:07;98976.03;;;31.22;38.54
26376;BME280;30544;42.196;24.336;2022-07-30T07:54:36;98980.66;;;31.71;38.60
26376;BME280;30544;42.196;24.336;2022-07-30T07:57:02;98982.06;;;31.13;37.61
26376;BME280;30544;42.196;24.336;2022-07-30T07:59:32;98979.16;;;31.81;37.45
26376;BME280;30544;42.196;24.336;2022-07-30T08:01:59;98972.91;;;32.19;36.74
26376;BME280;30544;42.196;24.336;2022-07-30T08:04:26;98969.13;;;32.08;36.24
26376;BME280;30544;42.196;24.336;2022-07-30T08:06:53;98971.09;;;32.52;35.58
26376;BME280;30544;42.196;24.336;2022-07-30T08:09:19;98965.06;;;32.75;35.64
26376;BME280;30544;42.196;24.336;2022-07-30T08:11:47;98964.75;;;31.36;36.54
26376;BME280;30544;42.196;24.336;2022-07-30T08:14:14;98979.28;;;32.46;36.27
26376;BME280;30544;42.196;24.336;2022-07-30T08:16:41;98967.00;;;32.53;36.09
26376;BME280;30544;42.196;24.336;2022-07-30T08:19:08;98973.03;;;33.06;35.07
26376;BME280;30544;42.196;24.336;2022-07-30T08:21:36;98964.34;;;32.81;35.56
26376;BME280;30544;42.196;24.336;2022-07-30T08:24:03;98970.50;;;32.90;34.69
26376;BME280;30544;42.196;24.336;2022-07-30T08:26:32;98966.59;;;33.38;35.75
26376;BME280;30544;42.196;24.336;2022-07-30T08:29:00;98960.13;;;31.65;36.65
26376;BME280;30544;42.196;24.336;2022-07-30T08:31:26;98960.31;;;32.31;36.42
26376;BME280;30544;42.196;24.336;2022-07-30T08:33:53;98969.75;;;33.08;35.47
26376;BME280;30544;42.196;24.336;2022-07-30T08:36:20;98954.72;;;32.52;34.65
26376;BME280;30544;42.196;24.336;2022-07-30T08:38:47;98954.81;;;32.74;34.78
26376;BME280;30544;42.196;24.336;2022-07-30T08:41:16;98951.69;;;32.93;33.89
26376;BME280;30544;42.196;24.336;2022-07-30T08:43:44;98939.72;;;32.80;33.60
26376;BME280;30544;42.196;24.336;2022-07-30T08:46:16;98948.47;;;33.16;33.74
26376;BME280;30544;42.196;24.336;2022-07-30T08:48:44;98952.16;;;33.09;34.61
26376;BME280;30544;42.196;24.336;2022-07-30T08:51:14;98943.97;;;33.15;34.51
26376;BME280;30544;42.196;24.336;2022-07-30T08:53:42;98943.97;;;33.26;32.92
26376;BME280;30544;42.196;24.336;2022-07-30T08:56:09;98945.56;;;33.05;33.69
26376;BME280;30544;42.196;24.336;2022-07-30T08:58:36;98928.78;;;32.35;34.22
26376;BME280;30544;42.196;24.336;2022-07-30T09:01:04;98936.56;;;33.14;34.55
26376;BME280;30544;42.196;24.336;2022-07-30T09:03:33;98938.69;;;33.35;34.15
26376;BME280;30544;42.196;24.336;2022-07-30T09:06:01;98929.31;;;33.80;32.71
26376;BME280;30544;42.196;24.336;2022-07-30T09:08:28;98922.72;;;33.69;32.63
26376;BME280;30544;42.196;24.336;2022-07-30T09:10:55;98921.53;;;34.02;32.14
26376;BME280;30544;42.196;24.336;2022-07-30T09:13:23;98923.03;;;33.25;31.87
26376;BME280;30544;42.196;24.336;2022-07-30T09:15:51;98915.75;;;33.56;31.99
26376;BME280;30544;42.196;24.336;2022-07-30T09:18:26;98926.22;;;32.88;32.33
26376;BME280;30544;42.196;24.336;2022-07-30T09:20:54;98929.00;;;32.74;33.51
26376;BME280;30544;42.196;24.336;2022-07-30T09:23:21;98921.44;;;33.28;33.05
26376;BME280;30544;42.196;24.336;2022-07-30T09:25:48;98919.44;;;32.48;33.51
26376;BME280;30544;42.196;24.336;2022-07-30T09:28:16;98914.84;;;33.24;32.15
26376;BME280;30544;42.196;24.336;2022-07-30T09:30:45;98911.66;;;33.43;31.86
26376;BME280;30544;42.196;24.336;2022-07-30T09:33:12;98911.44;;;32.89;30.48
26376;BME280;30544;42.196;24.336;2022-07-30T09:35:40;98908.06;;;32.63;33.46
26376;BME280;30544;42.196;24.336;2022-07-30T09:38:09;98913.16;;;33.08;31.55
26376;BME280;30544;42.196;24.336;2022-07-30T09:40:36;98897.97;;;32.97;32.46
26376;BME280;30544;42.196;24.336;2022-07-30T09:43:07;98899.03;;;32.60;32.12
26376;BME280;30544;42.196;24.336;2022-07-30T09:45:34;98898.00;;;33.11;31.87
26376;BME280;30544;42.196;24.336;2022-07-30T09:48:19;98888.84;;;32.77;31.37
26376;BME280;30544;42.196;24.336;2022-07-30T09:50:47;98882.31;;;32.80;30.09
26376;BME280;30544;42.196;24.336;2022-07-30T09:53:16;98880.38;;;33.20;30.58
26376;BME280;30544;42.196;24.336;2022-07-30T09:55:43;98884.56;;;33.90;30.46
26376;BME280;30544;42.196;24.336;2022-07-30T09:58:11;98869.78;;;33.99;29.38
26376;BME280;30544;42.196;24.336;2022-07-30T10:00:39;98867.22;;;34.47;29.98
26376;BME280;30544;42.196;24.336;2022-07-30T10:03:17;98857.28;;;34.66;29.85
26376;BME280;30544;42.196;24.336;2022-07-30T10:05:52;98861.91;;;34.21;28.41
26376;BME280;30544;42.196;24.336;2022-07-30T10:08:37;98851.19;;;34.43;29.36
26376;BME280;30544;42.196;24.336;2022-07-30T10:11:05;98853.63;;;34.51;29.69
26376;BME280;30544;42.196;24.336;2022-07-30T10:13:33;98850.81;;;34.30;28.64
26376;BME280;30544;42.196;24.336;2022-07-30T10:16:01;98846.34;;;34.04;27.46
26376;BME280;30544;42.196;24.336;2022-07-30T10:18:28;98836.69;;;34.67;27.57
26376;BME280;30544;42.196;24.336;2022-07-30T10:20:56;98845.13;;;33.73;27.85
26376;BME280;30544;42.196;24.336;2022-07-30T10:23:27;98844.31;;;33.55;28.97
26376;BME280;30544;42.196;24.336;2022-07-30T10:25:54;98845.94;;;33.80;29.74
26376;BME280;30544;42.196;24.336;2022-07-30T10:28:21;98834.38;;;34.30;29.67
26376;BME280;30544;42.196;24.336;2022-07-30T10:30:49;98844.28;;;34.15;29.33
26376;BME280;30544;42.196;24.336;2022-07-30T10:33:17;98848.84;;;33.48;30.33
26376;BME280;30544;42.196;24.336;2022-07-30T10:35:44;98841.84;;;33.64;30.42
26376;BME280;30544;42.196;24.336;2022-07-30T10:38:12;98830.38;;;33.60;29.85
26376;BME280;30544;42.196;24.336;2022-07-30T10:40:49;98824.56;;;34.03;29.45
26376;BME280;30544;42.196;24.336;2022-07-30T10:46:15;98815.72;;;34.71;28.63
26376;BME280;30544;42.196;24.336;2022-07-30T10:48:44;98808.84;;;34.47;30.19
26376;BME280;30544;42.196;24.336;2022-07-30T10:51:11;98814.56;;;34.54;28.94
26376;BME280;30544;42.196;24.336;2022-07-30T10:53:40;98800.41;;;34.88;28.06
26376;BME280;30544;42.196;24.336;2022-07-30T10:56:15;98803.78;;;34.72;28.55
26376;BME280;30544;42.196;24.336;2022-07-30T10:59:02;98795.53;;;34.78;29.01
26376;BME280;30544;42.196;24.336;2022-07-30T11:04:32;98797.72;;;34.52;29.83
26376;BME280;30544;42.196;24.336;2022-07-30T11:07:27;98787.63;;;33.94;28.40
26376;BME280;30544;42.196;24.336;2022-07-30T11:09:55;98790.88;;;34.07;29.43
26376;BME280;30544;42.196;24.336;2022-07-30T11:12:54;98777.38;;;34.88;27.70
26376;BME280;30544;42.196;24.336;2022-07-30T11:15:21;98781.28;;;35.19;29.73
26376;BME280;30544;42.196;24.336;2022-07-30T11:18:00;98771.53;;;35.02;28.43
26376;BME280;30544;42.196;24.336;2022-07-30T11:20:28;98770.50;;;35.26;30.17
26376;BME280;30544;42.196;24.336;2022-07-30T11:23:07;98770.50;;;34.67;29.30
26376;BME280;30544;42.196;24.336;2022-07-30T11:25:39;98771.63;;;34.88;28.64
26376;BME280;30544;42.196;24.336;2022-07-30T11:28:39;98767.31;;;35.66;28.43
26376;BME280;30544;42.196;24.336;2022-07-30T11:31:29;98759.94;;;36.02;26.56
26376;BME280;30544;42.196;24.336;2022-07-30T11:34:24;98749.47;;;35.33;27.49
26376;BME280;30544;42.196;24.336;2022-07-30T11:37:08;98756.88;;;34.79;27.71
26376;BME280;30544;42.196;24.336;2022-07-30T11:40:05;98749.53;;;34.67;28.61
26376;BME280;30544;42.196;24.336;2022-07-30T11:42:34;98750.19;;;35.89;26.88
26376;BME280;30544;42.196;24.336;2022-07-30T11:45:25;98746.72;;;36.69;26.68
26376;BME280;30544;42.196;24.336;2022-07-30T11:47:56;98730.91;;;34.86;28.11
26376;BME280;30544;42.196;24.336;2022-07-30T11:50:26;98730.31;;;35.09;27.90
26376;BME280;30544;42.196;24.336;2022-07-30T11:52:54;98732.81;;;36.27;26.89
26376;BME280;30544;42.196;24.336;2022-07-30T11:55:22;98719.88;;;36.42;26.16
26376;BME280;30544;42.196;24.336;2022-07-30T11:57:50;98726.38;;;36.76;26.91
26376;BME280;30544;42.196;24.336;2022-07-30T12:00:18;98724.84;;;36.41;25.99
26376;BME280;30544;42.196;24.336;2022-07-30T12:02:46;98728.84;;;36.17;26.19
26376;BME280;30544;42.196;24.336;2022-07-30T12:05:14;98714.56;;;36.06;26.50
26376;BME280;30544;42.196;24.336;2022-07-30T12:07:42;98710.69;;;35.86;25.77
26376;BME280;30544;42.196;24.336;2022-07-30T12:10:13;98698.06;;;35.28;26.04
26376;BME280;30544;42.196;24.336;2022-07-30T12:12:40;98686.44;;;36.14;25.61
26376;BME280;30544;42.196;24.336;2022-07-30T12:15:08;98690.50;;;35.82;26.26
26376;BME280;30544;42.196;24.336;2022-07-30T12:17:42;98685.84;;;36.26;27.17
26376;BME280;30544;42.196;24.336;2022-07-30T12:20:17;98686.06;;;36.12;25.81
26376;BME280;30544;42.196;24.336;2022-07-30T12:22:44;98671.69;;;36.39;24.92
26376;BME280;30544;42.196;24.336;2022-07-30T12:25:11;98679.03;;;36.70;25.72
26376;BME280;30544;42.196;24.336;2022-07-30T12:27:38;98671.84;;;36.55;25.42
26376;BME280;30544;42.196;24.336;2022-07-30T12:30:06;98672.31;;;36.54;25.51
26376;BME280;30544;42.196;24.336;2022-07-30T12:32:35;98676.13;;;36.47;25.68
26376;BME280;30544;42.196;24.336;2022-07-30T12:35:03;98657.09;;;36.50;25.36
26376;BME280;30544;42.196;24.336;2022-07-30T12:37:31;98654.06;;;35.65;25.44
26376;BME280;30544;42.196;24.336;2022-07-30T12:40:06;98657.78;;;36.00;25.06
26376;BME280;30544;42.196;24.336;2022-07-30T12:42:33;98645.84;;;35.64;25.88
26376;BME280;30544;42.196;24.336;2022-07-30T12:45:00;98645.25;;;35.42;26.65
26376;BME280;30544;42.196;24.336;2022-07-30T12:47:29;98648.03;;;35.11;27.44
26376;BME280;30544;42.196;24.336;2022-07-30T12:49:59;98642.41;;;34.97;27.19
26376;BME280;30544;42.196;24.336;2022-07-30T12:52:28;98650.75;;;35.25;27.40
26376;BME280;30544;42.196;24.336;2022-07-30T12:54:58;98653.28;;;35.61;26.55
26376;BME280;30544;42.196;24.336;2022-07-30T12:57:25;98648.19;;;36.06;26.81
26376;BME280;30544;42.196;24.336;2022-07-30T13:00:04;98639.66;;;35.99;25.48
26376;BME280;30544;42.196;24.336;2022-07-30T13:02:32;98627.63;;;35.70;26.57
26376;BME280;30544;42.196;24.336;2022-07-30T13:04:59;98627.50;;;35.81;26.47
26376;BME280;30544;42.196;24.336;2022-07-30T13:07:26;98630.63;;;35.60;26.06